aviador You're here:

RJOO Decoded Metar

OSAKA in JAPAN
Report Time2014-09-01 23:00:00
UTC Time2014-09-01 23:22:58
Flight Rules vfr VFR
WindVRB at 02 kt
Visibility9999 m
Phenomena:N/A
Clouds:Few 015 Hf
Expected CloudBase > 1,600 ft AGL from Temp-Dew spread
CeilingNone
Temp24°C (ISA +9)
Dew Point20°C (78% RH)
QNH1014 hPa
Density Alt1,378 ft
Elevation49 ft
Report Wrong Elevation
Raw Report
METAR RJOO 012300Z VRB02KT 9999 FEW015 SCT/// 24/20 Q1014 RMK 1CU015
A2995=

Flight School in Barcelona

Extra information for RJOO:More info

Metar Taf Metar & Taf Last 4 Metars F.Rules Stats Wind Profile Meteogram Temp Stats Airport Information Weather charts Add Link Nearby VenuesMetar ALERT Operation Metar Decoded Social comments